WetterOnline ( http://www.wetteronline.de )

Wetter aktuell Rhön (in 800m)

Aktuelles Wetter: Wasserkuppe (925m)

6-stündlich | Neueste Meldungen
Ortszeit Temperatur Wetter
Di, 22.01. 7:00 -8.6° C fast wolkenlos
Di, 22.01. 1:00 -9.0° C wolkenlos
Mo, 21.01. 19:00 -8.5° C wolkenlos
Mo, 21.01. 13:00 -4.6° C leicht bewölkt
Mo, 21.01. 7:00 -8.9° C bedeckt
Mo, 21.01. 1:00 -9.1° C bewölkt
So, 20.01. 19:00 -7.5° C wolkenlos
So, 20.01. 13:00 -5.7° C fast wolkenlos
Ortszeit Temperatur Wetter
Di, 22.01. 9:30 -9.4° C leicht bewölkt
Di, 22.01. 9:20 -9.4° C wolkenlos
Di, 22.01. 9:10 -8.9° C wolkenlos
Di, 22.01. 9:00 -9.2° C fast wolkenlos
Di, 22.01. 8:50 -9.2° C wolkenlos
Di, 22.01. 8:40 -9.4° C wolkenlos
Di, 22.01. 8:30 -9.8° C fast wolkenlos
Di, 22.01. 8:00 -8.9° C fast wolkenlos
Di, 22.01. 7:30 -8.8° C fast wolkenlos
Di, 22.01. 7:00 -8.6° C fast wolkenlos
Di, 22.01. 6:30 -9.1° C fast wolkenlos
Ortszeit Relative Feuchte Sichtweite
Di, 22.01. 7:00 73% 50 km
Di, 22.01. 1:00 81% 30 km
Mo, 21.01. 19:00 78% 30 km
Mo, 21.01. 13:00 88% 10 km
Mo, 21.01. 7:00 92% 7 km
Mo, 21.01. 1:00 94% 4.0 km
So, 20.01. 19:00 82% 30 km
So, 20.01. 13:00 69% 40 km
Ortszeit Relative Feuchte Sichtweite
Di, 22.01. 9:30 88% 30 km
Di, 22.01. 9:20 88% -
Di, 22.01. 9:10 85% -
Di, 22.01. 9:00 92% 30 km
Di, 22.01. 8:50 92% -
Di, 22.01. 8:40 94% -
Di, 22.01. 8:30 92% 30 km
Di, 22.01. 8:00 83% 40 km
Di, 22.01. 7:30 73% 50 km
Di, 22.01. 7:00 73% 50 km
Di, 22.01. 6:30 74% 55 km
Ortszeit Niederschlagsmenge Niederschlagsart
Di, 22.01. 7:00 0.0 l/m2 in 12 Std. -
Di, 22.01. 1:00 0.0 l/m2 in 6 Std. -
Mo, 21.01. 19:00 0.0 l/m2 in 12 Std. -
Mo, 21.01. 13:00 0.0 l/m2 in 6 Std. -
Mo, 21.01. 7:00 0.1 l/m2 in 12 Std. Schnee, Nebel
Mo, 21.01. 1:00 0.0 l/m2 in 6 Std. -
So, 20.01. 19:00 0.0 l/m2 in 12 Std. -
So, 20.01. 13:00 0.0 l/m2 in 6 Std. -
Ortszeit Niederschlagsmenge Niederschlagsart
Di, 22.01. 9:30 0.0 l/m2 in 1 Std. -
Di, 22.01. 9:20 keine Meldung -
Di, 22.01. 9:10 keine Meldung -
Di, 22.01. 9:00 0.0 l/m2 in 1 Std. -
Di, 22.01. 8:50 keine Meldung -
Di, 22.01. 8:40 keine Meldung -
Di, 22.01. 8:30 0.0 l/m2 in 1 Std. -
Di, 22.01. 8:00 0.0 l/m2 in 1 Std. -
Di, 22.01. 7:30 0.0 l/m2 in 1 Std. -
Di, 22.01. 7:00 0.0 l/m2 in 1 Std. -
Di, 22.01. 6:30 0.0 l/m2 in 1 Std. -
Ortszeit Stärke Spitze Richtung
km/h Bft. km/h Grad Sektor
Di, 22.01. 7:00 11 2 14 180° S
Di, 22.01. 1:00 4 1 22 310° NW
Mo, 21.01. 19:00 9 2 17 290° W
Mo, 21.01. 13:00 4 1 25 210° SW
Mo, 21.01. 7:00 17 3 35 130° SO
Mo, 21.01. 1:00 22 4 32 150° SO
So, 20.01. 19:00 14 3 25 90° O
So, 20.01. 13:00 15 3 33 100° O
Ortszeit Stärke Spitze Richtung
km/h Bft. km/h Grad Sektor
Di, 22.01. 9:30 13 3 19 170° S
Di, 22.01. 9:20 13 3 - 170° S
Di, 22.01. 9:10 13 3 - 170° S
Di, 22.01. 9:00 13 3 20 170° S
Di, 22.01. 8:50 13 3 - 170° S
Di, 22.01. 8:40 14 3 - 170° S
Di, 22.01. 8:30 17 3 19 160° S
Di, 22.01. 8:00 14 3 22 170° S
Di, 22.01. 7:30 9 2 17 180° S
Di, 22.01. 7:00 11 2 14 180° S
Di, 22.01. 6:30 9 2 11 180° S
Ortszeit Untergrenze Bedeckung Gattung
total tief tief mittel hoch
Di, 22.01. 7:00 7800 m 1/8 0/8 - - Ci
Di, 22.01. 1:00 - 0/8 0/8 - - -
Mo, 21.01. 19:00 - 0/8 0/8 - - -
Mo, 21.01. 13:00 120 m 2/8 2/8 Sc - -
Mo, 21.01. 7:00 <30 m 8/8 7/8 St - -
Mo, 21.01. 1:00 <30 m 7/8 7/8 St - -
So, 20.01. 19:00 - 0/8 0/8 - - -
So, 20.01. 13:00 8100 m 1/8 0/8 - - Ci
Ortszeit Bedeckungsgrad in Achtel und Wolkenuntergrenze
Di, 22.01. 9:30 2(7800m)
Di, 22.01. 9:20 keine Wolken
Di, 22.01. 9:10 keine Wolken
Di, 22.01. 9:00 1(7800m)
Di, 22.01. 8:50 keine Wolken
Di, 22.01. 8:40 keine Wolken
Di, 22.01. 8:30 1(7800m)
Di, 22.01. 8:00 1(7800m)
Di, 22.01. 7:30 1(7800m)
Di, 22.01. 7:00 1(7800m)
Di, 22.01. 6:30 1(9000m)
Ortszeit Stationsdruck (hPa) Tendenz (hPa in 3 Std.)
Di, 22.01. 7:00 903 - 1,9
Di, 22.01. 1:00 907 - 1,0
Mo, 21.01. 19:00 908 - 0,6
Mo, 21.01. 13:00 910 - 0,4
Mo, 21.01. 7:00 910 + 0,3
Mo, 21.01. 1:00 909 + 0,8
So, 20.01. 19:00 907 + 1,2
So, 20.01. 13:00 906 + 1,0
Ortszeit Stationsdruck (hPa) Tendenz (hPa in 3 Std.)
Di, 22.01. 9:30 902 - 1,3
Di, 22.01. 9:20 902 keine Meldung
Di, 22.01. 9:10 902 keine Meldung
Di, 22.01. 9:00 902 - 1,2
Di, 22.01. 8:50 902 keine Meldung
Di, 22.01. 8:40 902 keine Meldung
Di, 22.01. 8:30 902 - 1,3
Di, 22.01. 8:00 902 - 1,6
Di, 22.01. 7:30 903 - 1,7
Di, 22.01. 7:00 903 - 1,9
Di, 22.01. 6:30 903 - 2,2
Ortszeit Schneehöhe (cm)
Di, 22.01. 7:00 31
Di, 22.01. 1:00 31
Mo, 21.01. 19:00 31
Mo, 21.01. 13:00 32
Mo, 21.01. 7:00 32
Mo, 21.01. 1:00 32
So, 20.01. 19:00 32
So, 20.01. 13:00 33
Ortszeit Schneehöhe (cm)
Di, 22.01. 9:30 -
Di, 22.01. 9:20 -
Di, 22.01. 9:10 -
Di, 22.01. 9:00 -
Di, 22.01. 8:50 -
Di, 22.01. 8:40 -
Di, 22.01. 8:30 -
Di, 22.01. 8:00 -
Di, 22.01. 7:30 -
Di, 22.01. 7:00 31
Di, 22.01. 6:30 -
Link zu dieser Seite / Seite empfehlen

Das Wetter in ...